Time;durP1;ratioP1;P1;durP2;ratioP2;P2;SDS_P1;SDS_P2;PMS_P1;PMS_P2;Temp;Humidity;BMP_temperature;BMP_pressure;BME280_temperature;BME280_humidity;BME280_pressure;Samples;Min_cycle;Max_cycle;Signal;HPM_P1;HPM_P2
2023/12/05 00:01:45;;;;;;;20.30;15.82;;;0.80;99.90;;;;;;5064742;28;20664;-44
2023/12/05 00:04:11;;;;;;;22.55;17.23;;;0.80;99.90;;;;;;5066512;28;20043;-44
2023/12/05 00:06:37;;;;;;;21.50;14.73;;;0.80;99.90;;;;;;5072323;28;20559;-45
2023/12/05 00:09:03;;;;;;;21.17;16.48;;;0.80;99.90;;;;;;5066935;28;20045;-45
2023/12/05 00:11:29;;;;;;;21.58;17.10;;;0.80;99.90;;;;;;5066897;28;20073;-44
2023/12/05 00:13:55;;;;;;;22.23;16.70;;;0.80;99.90;;;;;;5060631;28;20505;-45
2023/12/05 00:16:20;;;;;;;20.80;17.45;;;0.70;99.90;;;;;;5066773;28;20037;-45
2023/12/05 00:18:49;;;;;;;21.40;15.80;;;0.80;99.90;;;;;;5060805;28;20132;-46
2023/12/05 00:21:18;;;;;;;22.63;17.33;;;0.80;99.90;;;;;;5069883;28;20454;-45
2023/12/05 00:23:44;;;;;;;16.25;11.75;;;0.70;99.90;;;;;;5056762;28;20433;-45
2023/12/05 00:26:09;;;;;;;19.48;14.93;;;0.70;99.90;;;;;;5059673;28;20070;-44
2023/12/05 00:28:35;;;;;;;22.30;16.75;;;0.80;99.90;;;;;;5068172;28;20094;-45
2023/12/05 00:31:01;;;;;;;15.10;10.80;;;0.80;99.90;;;;;;5059796;28;20134;-46
2023/12/05 00:33:26;;;;;;;19.48;14.68;;;0.80;99.90;;;;;;5058147;28;20478;-46
2023/12/05 00:35:52;;;;;;;22.83;16.40;;;0.70;99.90;;;;;;5063210;28;20110;-44
2023/12/05 00:38:18;;;;;;;20.77;15.75;;;0.70;99.90;;;;;;5066310;28;20079;-45
2023/12/05 00:40:43;;;;;;;25.35;19.60;;;0.70;99.90;;;;;;5063837;28;20063;-45
2023/12/05 00:43:09;;;;;;;22.65;17.55;;;0.70;99.90;;;;;;5065220;28;20043;-46
2023/12/05 00:45:34;;;;;;;17.38;14.10;;;0.70;99.90;;;;;;5063340;28;20067;-46
2023/12/05 00:48:00;;;;;;;22.10;16.75;;;0.70;99.90;;;;;;5062591;28;20032;-45
2023/12/05 00:50:25;;;;;;;23.20;18.23;;;0.70;99.90;;;;;;5057318;28;20099;-45
2023/12/05 00:52:51;;;;;;;19.25;13.80;;;0.70;99.90;;;;;;5061571;28;20044;-46
2023/12/05 00:55:16;;;;;;;26.02;20.08;;;0.70;99.90;;;;;;5059838;28;20033;-45
2023/12/05 00:57:42;;;;;;;14.65;11.70;;;0.70;99.90;;;;;;5062226;28;20127;-45
2023/12/05 01:00:13;;;;;;;22.35;16.05;;;0.70;99.90;;;;;;5062248;28;20072;-46
2023/12/05 01:02:39;;;;;;;25.95;18.45;;;0.70;99.90;;;;;;5064167;28;20083;-46
2023/12/05 01:05:08;;;;;;;24.77;19.70;;;0.70;99.90;;;;;;5060294;28;20033;-46
2023/12/05 01:07:35;;;;;;;23.30;17.23;;;0.70;99.90;;;;;;5055913;28;20040;-46
2023/12/05 01:10:01;;;;;;;26.02;18.77;;;0.60;99.90;;;;;;5059572;28;20416;-45
2023/12/05 01:12:26;;;;;;;21.30;15.80;;;0.60;99.90;;;;;;5055612;28;20048;-45
2023/12/05 01:14:52;;;;;;;20.80;15.05;;;0.70;99.90;;;;;;5062918;28;20059;-46
2023/12/05 01:17:17;;;;;;;23.27;17.10;;;0.60;99.90;;;;;;5062489;28;20044;-46
2023/12/05 01:19:43;;;;;;;20.58;15.13;;;0.70;99.90;;;;;;5061447;28;20036;-45
2023/12/05 01:22:08;;;;;;;19.92;15.98;;;0.70;99.90;;;;;;5062579;28;20867;-46
2023/12/05 01:24:34;;;;;;;23.45;17.85;;;0.70;99.90;;;;;;5064477;28;20040;-46
2023/12/05 01:26:59;;;;;;;22.92;17.63;;;0.70;99.90;;;;;;5064142;28;20354;-44
2023/12/05 01:29:25;;;;;;;26.17;18.80;;;0.70;99.90;;;;;;5068234;28;20148;-46
2023/12/05 01:31:51;;;;;;;23.73;18.52;;;0.70;99.90;;;;;;5066687;28;20519;-46
2023/12/05 01:34:17;;;;;;;20.60;15.77;;;0.70;99.90;;;;;;5063385;28;20132;-47
2023/12/05 01:36:43;;;;;;;26.45;19.00;;;0.70;99.90;;;;;;5065974;28;20037;-46
2023/12/05 01:39:12;;;;;;;26.58;18.88;;;0.70;99.90;;;;;;5064227;28;20131;-45
2023/12/05 01:41:38;;;;;;;22.38;17.23;;;0.70;99.90;;;;;;5068158;28;20120;-49
2023/12/05 01:44:03;;;;;;;21.88;16.35;;;0.70;99.90;;;;;;5063918;28;20115;-46
2023/12/05 01:46:30;;;;;;;14.00;11.05;;;0.70;99.90;;;;;;5065899;28;20041;-45
2023/12/05 01:48:56;;;;;;;23.45;17.63;;;0.70;99.90;;;;;;5063769;28;20048;-47
2023/12/05 01:51:22;;;;;;;23.05;17.67;;;0.70;99.90;;;;;;5065651;28;20467;-45
2023/12/05 01:53:48;;;;;;;19.25;13.57;;;0.70;99.90;;;;;;5061324;28;20040;-45
2023/12/05 01:56:14;;;;;;;26.98;18.98;;;0.70;99.90;;;;;;5067050;28;20033;-47
2023/12/05 01:58:40;;;;;;;22.83;15.80;;;0.70;99.90;;;;;;5065267;28;20036;-44
2023/12/05 02:01:07;;;;;;;19.85;14.65;;;0.70;99.90;;;;;;5065253;28;20778;-46
2023/12/05 02:03:34;;;;;;;25.92;19.08;;;0.70;99.90;;;;;;5070104;28;20041;-46
2023/12/05 02:06:00;;;;;;;20.65;15.98;;;0.70;99.90;;;;;;5066817;28;20167;-46
2023/12/05 02:08:29;;;;;;;24.45;17.65;;;0.70;99.90;;;;;;5060624;28;20032;-44
2023/12/05 02:10:55;;;;;;;23.67;17.70;;;0.70;99.90;;;;;;5066840;28;20045;-47
2023/12/05 02:13:20;;;;;;;21.65;16.08;;;0.60;99.90;;;;;;5058826;28;20048;-49
2023/12/05 02:15:59;;;;;;;23.02;16.80;;;0.70;99.90;;;;;;5065136;28;20139;-45
2023/12/05 02:18:33;;;;;;;23.98;18.08;;;0.70;99.90;;;;;;5060270;28;20053;-44
2023/12/05 02:21:13;;;;;;;19.83;14.65;;;0.70;99.90;;;;;;5065576;28;20452;-44
2023/12/05 02:24:23;;;;;;;24.83;18.75;;;0.70;99.90;;;;;;5065252;28;20052;-48
2023/12/05 02:27:15;;;;;;;15.57;11.88;;;0.60;99.90;;;;;;5065710;28;20056;-47
2023/12/05 02:29:51;;;;;;;20.13;14.45;;;0.80;99.90;;;;;;5064519;28;20410;-45
2023/12/05 02:32:17;;;;;;;17.52;13.35;;;0.80;99.90;;;;;;5064759;28;20048;-45
2023/12/05 02:34:43;;;;;;;19.50;14.98;;;0.70;99.90;;;;;;5064118;28;20048;-45
2023/12/05 02:37:11;;;;;;;22.35;18.08;;;0.70;99.90;;;;;;5061190;28;20040;-46
2023/12/05 02:39:45;;;;;;;25.15;18.85;;;0.70;99.90;;;;;;5060376;28;20041;-45
2023/12/05 02:42:13;;;;;;;22.40;16.83;;;0.80;99.90;;;;;;5062747;28;20036;-44
2023/12/05 02:44:47;;;;;;;23.48;18.55;;;0.80;99.90;;;;;;5057680;28;20036;-46
2023/12/05 02:47:15;;;;;;;24.75;19.17;;;0.70;99.90;;;;;;5064842;28;20418;-45
2023/12/05 02:49:41;;;;;;;26.63;20.10;;;0.70;99.90;;;;;;5062959;28;20059;-44
2023/12/05 02:52:07;;;;;;;24.45;18.58;;;0.80;99.90;;;;;;5067692;28;20366;-45
2023/12/05 02:54:32;;;;;;;26.88;20.13;;;0.70;99.90;;;;;;5063598;28;20653;-44
2023/12/05 02:56:58;;;;;;;22.02;14.15;;;0.80;99.90;;;;;;5063356;28;20036;-48
2023/12/05 02:59:23;;;;;;;25.08;18.17;;;0.80;99.90;;;;;;5062115;28;20087;-45
2023/12/05 03:01:49;;;;;;;24.40;19.33;;;0.70;99.90;;;;;;5063410;28;20119;-45
2023/12/05 03:04:16;;;;;;;24.65;17.73;;;0.70;99.90;;;;;;5061998;28;20080;-44
2023/12/05 03:06:42;;;;;;;21.77;16.50;;;0.80;99.90;;;;;;5057401;28;20064;-45
2023/12/05 03:09:07;;;;;;;23.77;18.35;;;0.80;99.90;;;;;;5064556;28;20103;-45
2023/12/05 03:11:33;;;;;;;23.25;19.00;;;0.80;99.90;;;;;;5061156;28;20044;-45
2023/12/05 03:13:59;;;;;;;23.02;18.42;;;0.80;99.90;;;;;;5064526;28;20080;-45
2023/12/05 03:16:24;;;;;;;23.48;18.33;;;0.70;99.90;;;;;;5061449;28;20107;-44
2023/12/05 03:18:50;;;;;;;23.05;17.90;;;0.80;99.90;;;;;;5063850;28;20033;-44
2023/12/05 03:21:19;;;;;;;24.13;19.33;;;0.90;99.90;;;;;;5064730;28;20047;-44
2023/12/05 03:23:45;;;;;;;27.52;19.98;;;0.90;99.90;;;;;;5062785;28;20051;-44
2023/12/05 03:26:18;;;;;;;19.02;14.13;;;0.80;99.90;;;;;;5066753;28;20377;-44
2023/12/05 03:28:44;;;;;;;22.65;17.38;;;0.80;99.90;;;;;;5065924;28;20048;-44
2023/12/05 03:31:10;;;;;;;25.00;19.23;;;0.90;99.90;;;;;;5066603;28;20059;-45
2023/12/05 03:33:38;;;;;;;18.38;13.98;;;0.80;99.90;;;;;;5066169;28;20060;-45
2023/12/05 03:36:04;;;;;;;16.63;12.23;;;0.80;99.90;;;;;;5065674;28;20064;-45
2023/12/05 03:38:30;;;;;;;22.75;18.33;;;0.90;99.90;;;;;;5066608;28;20470;-45
2023/12/05 03:40:56;;;;;;;22.45;17.40;;;0.90;99.90;;;;;;5050391;28;20047;-45
2023/12/05 03:43:22;;;;;;;19.98;16.13;;;0.80;99.90;;;;;;5063770;28;20041;-46
2023/12/05 03:45:48;;;;;;;21.52;16.30;;;0.80;99.90;;;;;;5063904;28;20059;-44
2023/12/05 03:48:14;;;;;;;29.70;20.45;;;0.90;99.90;;;;;;5061844;28;20410;-44
2023/12/05 03:50:39;;;;;;;22.00;17.15;;;0.80;99.90;;;;;;5064713;28;20033;-44
2023/12/05 03:53:05;;;;;;;26.25;19.13;;;0.80;99.90;;;;;;5062063;28;20062;-44
2023/12/05 03:55:34;;;;;;;26.42;18.42;;;0.90;99.90;;;;;;5063907;28;20044;-44
2023/12/05 03:57:59;;;;;;;23.63;18.42;;;0.80;99.90;;;;;;5061409;28;20056;-44
2023/12/05 04:00:25;;;;;;;25.08;18.92;;;0.90;99.90;;;;;;5061698;28;20385;-44
2023/12/05 04:02:51;;;;;;;21.45;16.38;;;0.80;99.90;;;;;;5065971;28;20214;-43
2023/12/05 04:05:17;;;;;;;25.13;19.92;;;0.80;99.90;;;;;;5061530;28;20698;-43
2023/12/05 04:07:42;;;;;;;22.48;16.08;;;0.80;99.90;;;;;;5064704;28;20036;-45
2023/12/05 04:10:09;;;;;;;23.55;17.50;;;0.80;99.90;;;;;;5064131;28;20506;-46
2023/12/05 04:12:35;;;;;;;21.33;15.93;;;0.80;99.90;;;;;;5062056;28;20036;-45
2023/12/05 04:15:01;;;;;;;23.25;18.65;;;0.90;99.90;;;;;;5060886;28;20054;-44
2023/12/05 04:17:26;;;;;;;22.20;16.92;;;0.80;99.90;;;;;;5063711;28;20045;-45
2023/12/05 04:19:52;;;;;;;22.02;16.75;;;0.90;99.90;;;;;;5066024;28;20037;-44
2023/12/05 04:22:17;;;;;;;22.98;16.60;;;0.90;99.90;;;;;;5062098;28;20064;-44
2023/12/05 04:24:43;;;;;;;22.35;17.73;;;0.90;99.90;;;;;;5070435;28;20043;-44
2023/12/05 04:27:09;;;;;;;29.67;19.85;;;0.90;99.90;;;;;;5064871;28;20066;-43
2023/12/05 04:29:34;;;;;;;27.02;19.60;;;0.80;99.90;;;;;;5064260;28;20098;-45
2023/12/05 04:32:02;;;;;;;21.95;15.55;;;0.80;99.90;;;;;;5062103;28;20041;-45
2023/12/05 04:34:27;;;;;;;26.83;19.95;;;0.90;99.90;;;;;;5066018;28;20040;-43
2023/12/05 04:36:53;;;;;;;28.35;20.80;;;0.80;99.90;;;;;;5067156;28;20559;-44
2023/12/05 04:39:19;;;;;;;30.08;20.58;;;0.90;99.90;;;;;;5064472;28;20047;-45
2023/12/05 04:41:45;;;;;;;30.85;21.92;;;0.90;99.90;;;;;;5062895;28;20029;-44
2023/12/05 04:44:10;;;;;;;28.50;21.83;;;0.80;99.90;;;;;;5062578;28;20067;-45
2023/12/05 04:46:39;;;;;;;23.48;18.20;;;0.80;99.90;;;;;;5065302;28;20036;-45
2023/12/05 04:49:05;;;;;;;29.52;21.40;;;0.80;99.90;;;;;;5067351;28;20072;-44
2023/12/05 04:51:31;;;;;;;25.42;19.35;;;0.80;99.90;;;;;;5063604;28;20083;-43
2023/12/05 04:53:56;;;;;;;29.38;21.98;;;0.90;99.90;;;;;;5060172;28;20120;-43
2023/12/05 04:56:22;;;;;;;20.42;15.57;;;0.80;99.90;;;;;;5062716;28;20424;-44
2023/12/05 04:58:48;;;;;;;25.90;19.25;;;0.80;99.90;;;;;;5059915;28;20075;-44
2023/12/05 05:01:14;;;;;;;31.55;23.13;;;0.90;99.90;;;;;;5058124;28;20120;-44
2023/12/05 05:03:40;;;;;;;25.30;17.40;;;0.90;99.90;;;;;;5062318;28;20040;-43
2023/12/05 05:06:06;;;;;;;26.27;19.75;;;0.80;99.90;;;;;;5068127;28;20044;-44
2023/12/05 05:08:31;;;;;;;29.70;21.17;;;0.80;99.90;;;;;;5061981;28;20048;-45
2023/12/05 05:10:57;;;;;;;27.40;19.85;;;0.90;99.90;;;;;;5061556;28;20052;-45
2023/12/05 05:13:22;;;;;;;29.50;21.27;;;0.80;99.90;;;;;;5057679;28;20047;-45
2023/12/05 05:15:48;;;;;;;29.65;21.67;;;0.80;99.90;;;;;;5061419;28;20343;-43
2023/12/05 05:18:14;;;;;;;26.40;18.60;;;0.80;99.90;;;;;;5059594;28;20127;-46
2023/12/05 05:20:39;;;;;;;30.67;22.90;;;0.80;99.90;;;;;;5063460;28;20111;-44
2023/12/05 05:23:06;;;;;;;26.15;20.02;;;0.80;99.90;;;;;;5060928;28;20024;-45
2023/12/05 05:25:31;;;;;;;32.05;23.10;;;0.90;99.90;;;;;;5062036;28;20119;-43
2023/12/05 05:27:57;;;;;;;30.23;22.25;;;0.80;99.90;;;;;;5060760;28;20127;-45
2023/12/05 05:30:22;;;;;;;28.40;20.98;;;0.80;99.90;;;;;;5059924;28;20056;-44
2023/12/05 05:32:48;;;;;;;27.85;19.33;;;0.80;99.90;;;;;;5062313;28;20055;-45
2023/12/05 05:35:14;;;;;;;27.38;19.85;;;0.90;99.90;;;;;;5060964;28;20043;-44
2023/12/05 05:37:39;;;;;;;26.13;17.17;;;0.80;99.90;;;;;;5063547;28;20036;-44
2023/12/05 05:40:07;;;;;;;27.48;19.27;;;0.80;99.90;;;;;;5059018;28;20045;-46
2023/12/05 05:42:32;;;;;;;22.97;17.83;;;0.90;99.90;;;;;;5059864;28;20446;-44
2023/12/05 05:44:58;;;;;;;25.63;18.08;;;0.90;99.90;;;;;;5061044;28;20342;-44
2023/12/05 05:47:24;;;;;;;24.65;18.40;;;0.80;99.90;;;;;;5062633;28;20036;-45
2023/12/05 05:49:50;;;;;;;34.53;25.05;;;0.80;99.90;;;;;;5062543;28;21282;-45
2023/12/05 05:52:15;;;;;;;35.65;25.33;;;0.80;99.90;;;;;;5061882;28;20048;-44
2023/12/05 05:54:41;;;;;;;36.13;25.85;;;0.80;99.90;;;;;;5064958;28;20041;-47
2023/12/05 05:57:07;;;;;;;33.80;20.77;;;0.80;99.90;;;;;;5060950;28;20053;-46
2023/12/05 05:59:32;;;;;;;30.05;21.27;;;0.80;99.90;;;;;;5061373;28;20045;-46
2023/12/05 06:01:58;;;;;;;31.13;21.10;;;0.80;99.90;;;;;;5061346;28;20135;-45
2023/12/05 06:04:23;;;;;;;25.15;17.95;;;0.90;99.90;;;;;;5064415;28;20040;-47
2023/12/05 06:06:49;;;;;;;35.72;25.73;;;0.80;99.90;;;;;;5062697;28;20048;-45
2023/12/05 06:09:15;;;;;;;30.50;21.63;;;0.80;99.90;;;;;;5056197;28;20131;-46
2023/12/05 06:11:42;;;;;;;28.75;20.55;;;0.80;99.90;;;;;;5066131;28;20429;-44
2023/12/05 06:14:08;;;;;;;28.38;20.13;;;0.70;99.90;;;;;;5062878;28;20032;-45
2023/12/05 06:16:33;;;;;;;33.53;23.63;;;0.70;99.90;;;;;;5067545;28;20501;-45
2023/12/05 06:18:59;;;;;;;41.05;25.90;;;0.80;99.90;;;;;;5067831;28;20443;-45
2023/12/05 06:21:25;;;;;;;34.60;25.00;;;0.80;99.90;;;;;;5063046;28;20045;-44
2023/12/05 06:23:50;;;;;;;32.88;22.83;;;0.80;99.90;;;;;;5063904;28;20498;-45
2023/12/05 06:26:16;;;;;;;34.38;24.75;;;0.90;99.90;;;;;;5063004;28;20037;-44
2023/12/05 06:28:41;;;;;;;34.47;24.33;;;0.80;99.90;;;;;;5067219;28;20126;-44
2023/12/05 06:31:08;;;;;;;28.90;20.45;;;1.00;99.90;;;;;;5066043;28;20048;-44
2023/12/05 06:33:33;;;;;;;37.33;25.50;;;0.80;99.90;;;;;;5063233;28;20059;-44
2023/12/05 06:35:59;;;;;;;33.08;22.30;;;;;;;;;;5065915;28;20049;-45
2023/12/05 06:38:25;;;;;;;36.38;25.80;;;0.90;99.90;;;;;;5066411;28;20040;-43
2023/12/05 06:40:50;;;;;;;24.45;17.60;;;0.90;99.90;;;;;;5064465;28;20094;-44
2023/12/05 06:43:16;;;;;;;30.92;21.75;;;0.80;99.90;;;;;;5060822;28;20033;-44
2023/12/05 06:45:42;;;;;;;38.97;26.85;;;0.90;99.90;;;;;;5062608;28;20053;-45
2023/12/05 06:48:07;;;;;;;34.25;23.65;;;0.80;99.90;;;;;;5064316;28;20405;-45
2023/12/05 06:50:33;;;;;;;37.63;26.08;;;0.90;99.90;;;;;;5060092;28;20045;-44
2023/12/05 06:52:59;;;;;;;32.78;20.42;;;0.90;99.90;;;;;;5061042;28;20052;-45
2023/12/05 06:55:26;;;;;;;41.47;29.45;;;0.90;99.90;;;;;;5067493;28;20062;-45
2023/12/05 06:57:51;;;;;;;39.13;28.35;;;0.90;99.90;;;;;;5068049;28;20090;-46
2023/12/05 07:00:18;;;;;;;45.33;30.05;;;0.90;99.90;;;;;;5063763;28;20473;-45
2023/12/05 07:02:44;;;;;;;45.63;32.20;;;0.80;99.90;;;;;;5064789;28;20569;-47
2023/12/05 07:05:10;;;;;;;41.20;29.33;;;1.00;99.90;;;;;;5064627;28;20055;-44
2023/12/05 07:07:36;;;;;;;27.75;19.55;;;0.90;99.90;;;;;;5068250;28;20029;-45
2023/12/05 07:10:02;;;;;;;40.22;27.05;;;0.90;99.90;;;;;;5067328;28;20044;-45
2023/12/05 07:12:28;;;;;;;42.78;28.85;;;0.80;99.90;;;;;;5061142;28;20048;-46
2023/12/05 07:14:54;;;;;;;41.10;26.95;;;0.90;99.90;;;;;;5079496;28;20043;-45
2023/12/05 07:17:20;;;;;;;33.63;21.45;;;0.90;99.90;;;;;;5068111;28;20033;-45
2023/12/05 07:19:45;;;;;;;48.05;33.00;;;1.00;99.90;;;;;;5064021;28;20032;-45
2023/12/05 07:22:12;;;;;;;40.97;27.90;;;0.90;99.90;;;;;;5064393;28;20048;-45
2023/12/05 07:24:37;;;;;;;40.15;27.33;;;1.00;99.90;;;;;;5066109;28;20488;-45
2023/12/05 07:27:03;;;;;;;41.65;27.65;;;0.90;99.90;;;;;;5064575;28;20060;-44
2023/12/05 07:29:29;;;;;;;43.47;29.50;;;0.90;99.90;;;;;;5064945;28;20037;-44
2023/12/05 07:31:54;;;;;;;43.13;29.55;;;1.00;99.90;;;;;;5064691;28;20505;-45
2023/12/05 07:34:20;;;;;;;37.38;25.13;;;0.90;99.90;;;;;;5064055;28;20045;-45
2023/12/05 07:36:46;;;;;;;40.70;26.80;;;0.90;99.90;;;;;;5063117;28;20040;-46
2023/12/05 07:39:12;;;;;;;41.50;29.45;;;1.00;99.90;;;;;;5067144;28;20037;-45
2023/12/05 07:41:39;;;;;;;52.42;34.05;;;0.90;99.90;;;;;;5063511;28;20128;-44
2023/12/05 07:44:06;;;;;;;44.20;29.55;;;1.00;99.90;;;;;;5068311;28;20044;-45
2023/12/05 07:46:32;;;;;;;48.45;31.88;;;0.90;99.90;;;;;;5067450;28;20134;-46
2023/12/05 07:48:58;;;;;;;45.08;29.40;;;1.00;99.90;;;;;;5066643;28;20144;-47
2023/12/05 07:51:23;;;;;;;49.13;31.58;;;0.90;99.90;;;;;;5069356;28;20043;-44
2023/12/05 07:53:53;;;;;;;45.17;29.98;;;0.80;99.90;;;;;;5068162;28;20040;-46
2023/12/05 07:56:19;;;;;;;45.58;30.80;;;1.00;99.90;;;;;;5066522;28;20044;-46
2023/12/05 07:58:45;;;;;;;42.33;28.17;;;1.00;99.90;;;;;;5064131;28;20102;-46
2023/12/05 08:01:11;;;;;;;39.13;27.00;;;0.90;99.90;;;;;;5061417;28;20036;-44
2023/12/05 08:03:37;;;;;;;43.50;29.60;;;0.90;99.90;;;;;;5063009;28;20087;-47
2023/12/05 08:06:02;;;;;;;51.67;34.97;;;0.90;99.90;;;;;;5066077;28;20079;-47
2023/12/05 08:08:34;;;;;;;34.85;22.15;;;1.00;99.90;;;;;;5065624;28;20505;-45
2023/12/05 08:11:00;;;;;;;39.17;24.80;;;0.80;99.90;;;;;;5067987;28;20401;-45
2023/12/05 08:13:26;;;;;;;43.55;27.42;;;0.80;99.90;;;;;;5064076;28;20040;-46
2023/12/05 08:15:52;;;;;;;44.85;30.48;;;1.00;99.90;;;;;;5064377;28;20076;-45
2023/12/05 08:18:18;;;;;;;47.78;31.85;;;1.00;99.90;;;;;;5060966;28;20083;-46
2023/12/05 08:20:44;;;;;;;45.22;30.52;;;0.90;99.90;;;;;;5061864;28;20037;-46
2023/12/05 08:23:10;;;;;;;45.60;30.30;;;1.00;99.90;;;;;;5062921;28;20494;-45
2023/12/05 08:25:37;;;;;;;38.05;25.15;;;0.90;99.90;;;;;;5064397;28;20056;-46
2023/12/05 08:28:03;;;;;;;47.53;31.50;;;0.90;99.90;;;;;;5064579;28;20115;-44
2023/12/05 08:30:29;;;;;;;48.55;31.55;;;1.00;99.90;;;;;;5067546;28;20526;-45
2023/12/05 08:32:57;;;;;;;46.00;30.08;;;1.00;99.90;;;;;;5064337;28;20036;-46
2023/12/05 08:35:23;;;;;;;43.88;28.48;;;1.00;99.90;;;;;;5067904;28;20067;-47
2023/12/05 08:37:50;;;;;;;45.57;30.20;;;0.90;99.90;;;;;;5064601;28;20133;-45
2023/12/05 08:40:17;;;;;;;46.63;31.85;;;0.90;99.90;;;;;;5069550;28;20112;-45
2023/12/05 08:42:42;;;;;;;46.85;30.08;;;1.20;99.90;;;;;;5065510;28;20477;-45
2023/12/05 08:45:12;;;;;;;43.58;28.80;;;1.20;99.90;;;;;;5063128;28;20048;-46
2023/12/05 08:47:38;;;;;;;36.65;23.98;;;1.00;99.90;;;;;;5068511;28;20620;-46
2023/12/05 08:50:06;;;;;;;41.67;26.85;;;1.20;99.90;;;;;;5062876;28;20116;-46
2023/12/05 08:52:31;;;;;;;44.45;29.30;;;1.30;99.90;;;;;;5064772;28;20071;-45
2023/12/05 08:54:57;;;;;;;40.50;27.50;;;1.20;99.90;;;;;;5067858;28;20048;-45
2023/12/05 08:57:22;;;;;;;43.70;29.38;;;1.00;99.90;;;;;;5062473;28;20115;-48
2023/12/05 08:59:48;;;;;;;42.30;26.73;;;1.00;99.90;;;;;;5068595;28;20040;-45
2023/12/05 09:02:14;;;;;;;45.95;31.10;;;1.10;99.90;;;;;;5064368;28;20075;-48
2023/12/05 09:04:39;;;;;;;43.35;27.10;;;1.10;99.90;;;;;;5068520;28;20753;-46
2023/12/05 09:07:05;;;;;;;42.88;29.20;;;1.10;99.90;;;;;;5066163;28;20032;-46
2023/12/05 09:09:31;;;;;;;28.85;20.10;;;1.00;99.90;;;;;;5065328;28;20090;-45
2023/12/05 09:12:00;;;;;;;39.25;26.50;;;1.00;99.90;;;;;;5065657;28;20081;-45
2023/12/05 09:14:26;;;;;;;36.28;21.83;;;1.10;99.90;;;;;;5058136;28;20044;-44
2023/12/05 09:16:51;;;;;;;47.83;30.95;;;1.00;99.90;;;;;;5061241;28;20406;-46
2023/12/05 09:19:17;;;;;;;47.08;30.88;;;1.00;99.90;;;;;;5060972;28;20036;-47
2023/12/05 09:21:42;;;;;;;40.80;25.27;;;1.10;99.90;;;;;;5061691;28;20434;-45
2023/12/05 09:24:08;;;;;;;43.53;29.77;;;1.00;99.90;;;;;;5060698;28;20151;-44
2023/12/05 09:26:34;;;;;;;37.63;24.50;;;1.10;99.90;;;;;;5065645;28;20047;-47
2023/12/05 09:29:00;;;;;;;42.10;27.48;;;1.10;99.90;;;;;;5065704;28;20041;-45
2023/12/05 09:31:26;;;;;;;45.83;31.40;;;1.10;99.90;;;;;;5061644;28;20447;-45
2023/12/05 09:33:53;;;;;;;38.92;26.50;;;1.00;99.90;;;;;;5061540;28;20522;-46
2023/12/05 09:36:18;;;;;;;40.92;26.98;;;1.00;99.90;;;;;;5055992;28;20053;-48
2023/12/05 09:38:44;;;;;;;43.25;28.73;;;1.00;99.90;;;;;;5064273;28;20032;-47
2023/12/05 09:41:12;;;;;;;43.47;28.88;;;1.00;99.90;;;;;;5058740;28;20361;-44
2023/12/05 09:43:39;;;;;;;37.97;23.27;;;1.10;99.90;;;;;;5067076;28;20110;-44
2023/12/05 09:46:08;;;;;;;40.25;25.30;;;1.00;99.90;;;;;;5060308;28;20053;-44
2023/12/05 09:48:47;;;;;;;42.20;26.40;;;1.00;99.90;;;;;;5059298;28;20164;-45
2023/12/05 09:51:16;;;;;;;43.75;28.90;;;1.10;99.90;;;;;;5062599;28;20115;-44
2023/12/05 09:53:44;;;;;;;40.40;24.55;;;1.00;99.90;;;;;;5064626;28;20040;-44
2023/12/05 09:56:15;;;;;;;44.90;28.85;;;1.10;99.90;;;;;;5070274;28;20068;-47
2023/12/05 09:58:44;;;;;;;42.10;25.60;;;1.20;99.90;;;;;;5074911;28;20458;-45
2023/12/05 10:01:14;;;;;;;44.30;28.20;;;1.10;99.90;;;;;;5074372;28;20037;-44
2023/12/05 10:03:41;;;;;;;36.30;23.65;;;1.00;99.90;;;;;;5070279;28;20527;-44
2023/12/05 10:06:09;;;;;;;47.42;29.23;;;1.10;99.90;;;;;;5055104;28;20399;-45
2023/12/05 10:08:35;;;;;;;45.88;27.27;;;1.00;99.90;;;;;;5066837;28;20037;-45
2023/12/05 10:11:04;;;;;;;51.67;32.20;;;1.10;99.90;;;;;;5074332;28;20036;-44
2023/12/05 10:13:30;;;;;;;27.73;18.23;;;1.10;99.90;;;;;;5074316;28;20097;-45
2023/12/05 10:15:58;;;;;;;45.72;28.45;;;1.10;99.90;;;;;;5073700;28;20123;-44
2023/12/05 10:18:24;;;;;;;50.97;30.57;;;1.00;99.90;;;;;;5074815;28;20041;-44
2023/12/05 10:20:50;;;;;;;46.50;26.35;;;1.00;99.90;;;;;;5074643;28;20656;-45
2023/12/05 10:23:16;;;;;;;44.10;25.98;;;1.30;99.90;;;;;;5069853;28;20051;-45
2023/12/05 10:25:45;;;;;;;42.03;25.95;;;1.20;99.90;;;;;;5055080;28;20102;-45
2023/12/05 10:28:12;;;;;;;43.00;25.70;;;1.00;99.90;;;;;;5054791;28;20379;-45
2023/12/05 10:30:38;;;;;;;45.33;27.77;;;1.20;99.90;;;;;;5064728;28;20111;-46
2023/12/05 10:33:14;;;;;;;41.38;23.67;;;;;;;;;;5067196;28;20501;-45
2023/12/05 10:35:43;;;;;;;46.30;29.80;;;1.10;99.90;;;;;;5072243;28;20052;-46
2023/12/05 10:38:11;;;;;;;47.22;31.27;;;1.40;99.90;;;;;;5074748;28;20040;-45
2023/12/05 10:40:55;;;;;;;45.60;27.85;;;1.40;99.90;;;;;;5074416;28;20060;-44
2023/12/05 10:43:22;;;;;;;43.58;27.42;;;1.10;99.90;;;;;;5072371;28;20497;-45
2023/12/05 10:45:48;;;;;;;44.72;24.35;;;1.30;99.90;;;;;;5070848;28;20363;-46
2023/12/05 10:48:15;;;;;;;45.53;28.40;;;1.40;99.90;;;;;;5068051;28;20076;-46
2023/12/05 10:50:42;;;;;;;49.72;30.05;;;1.00;99.90;;;;;;5063691;28;20041;-45
2023/12/05 10:53:08;;;;;;;42.70;25.25;;;1.30;99.90;;;;;;5057719;28;20095;-45
2023/12/05 10:55:36;;;;;;;38.85;23.80;;;1.30;99.90;;;;;;5062073;28;20494;-46
2023/12/05 10:58:02;;;;;;;42.83;27.17;;;1.20;99.90;;;;;;5067403;28;20102;-46
2023/12/05 11:00:29;;;;;;;37.63;24.48;;;1.10;99.90;;;;;;5069339;28;20113;-48
2023/12/05 11:02:55;;;;;;;45.92;29.60;;;1.20;99.90;;;;;;5066828;28;20121;-44
2023/12/05 11:05:25;;;;;;;41.13;23.83;;;1.10;99.90;;;;;;5065931;28;20069;-45
2023/12/05 11:07:52;;;;;;;38.85;24.20;;;1.20;99.90;;;;;;5068942;28;20390;-44
2023/12/05 11:10:18;;;;;;;42.63;26.95;;;1.10;99.90;;;;;;5071669;28;20182;-45
2023/12/05 11:12:48;;;;;;;46.35;31.00;;;1.10;99.90;;;;;;5058200;28;20127;-45
2023/12/05 11:15:19;;;;;;;31.73;20.42;;;1.10;99.90;;;;;;5060177;28;20405;-46
2023/12/05 11:17:57;;;;;;;39.78;24.60;;;1.10;99.90;;;;;;5067366;28;20047;-45
2023/12/05 11:20:23;;;;;;;;;;;1.20;99.90;;;;;;5066443;28;20170;-45
2023/12/05 11:23:30;;;;;;;40.38;24.35;;;1.10;99.90;;;;;;5065533;28;19999;-45
2023/12/05 11:26:14;;;;;;;;;;;1.20;99.90;;;;;;5069659;28;20055;-45
2023/12/05 11:28:52;;;;;;;37.90;24.27;;;1.20;99.90;;;;;;5067005;28;19947;-45
2023/12/05 11:31:32;;;;;;;;;;;1.20;99.90;;;;;;5070174;28;20044;-44
2023/12/05 11:34:14;;;;;;;40.97;25.58;;;1.10;99.90;;;;;;5065894;28;20024;-44
2023/12/05 11:36:54;;;;;;;28.63;17.73;;;1.10;99.90;;;;;;5066381;28;20059;-44
2023/12/05 11:39:21;;;;;;;44.30;28.60;;;1.10;99.90;;;;;;5067531;28;20043;-46
2023/12/05 11:42:09;;;;;;;48.35;29.30;;;1.20;99.90;;;;;;5070955;28;20596;-44
2023/12/05 11:44:36;;;;;;;;;;;1.20;99.90;;;;;;5068241;28;20086;-44
2023/12/05 11:47:04;;;;;;;41.70;27.20;;;1.20;99.90;;;;;;5065275;28;20018;-45
2023/12/05 11:49:53;;;;;;;42.95;26.67;;;1.20;99.90;;;;;;5065616;28;20044;-44
2023/12/05 11:52:20;;;;;;;45.88;27.80;;;1.10;99.90;;;;;;5067949;28;20519;-45
2023/12/05 11:54:48;;;;;;;46.53;28.45;;;1.10;99.90;;;;;;5065630;28;20500;-44
2023/12/05 11:57:18;;;;;;;46.28;29.27;;;1.20;99.90;;;;;;5067039;28;20085;-46
2023/12/05 11:59:45;;;;;;;42.58;26.88;;;1.20;99.90;;;;;;5068490;28;20037;-45
2023/12/05 12:02:13;;;;;;;32.93;20.13;;;1.10;99.90;;;;;;5068627;28;20070;-44
2023/12/05 12:04:38;;;;;;;40.85;25.80;;;1.20;99.90;;;;;;5062250;28;20063;-47
2023/12/05 12:07:04;;;;;;;37.88;24.00;;;1.10;99.90;;;;;;5060755;28;20470;-47
2023/12/05 12:09:36;;;;;;;38.70;25.80;;;1.10;99.90;;;;;;5059753;28;20029;-44
2023/12/05 12:12:03;;;;;;;41.80;28.35;;;1.20;99.90;;;;;;5061350;28;20071;-46
2023/12/05 12:14:30;;;;;;;39.40;27.95;;;1.10;99.90;;;;;;5070505;28;20417;-47
2023/12/05 12:16:57;;;;;;;35.00;24.43;;;1.20;99.90;;;;;;5065776;28;20408;-44
2023/12/05 12:19:23;;;;;;;39.22;27.90;;;1.20;99.90;;;;;;5067600;28;20375;-48
2023/12/05 12:21:49;;;;;;;43.55;28.10;;;1.30;99.90;;;;;;5065627;28;20094;-45
2023/12/05 12:24:19;;;;;;;40.20;27.48;;;1.50;99.90;;;;;;5064866;28;20040;-45
2023/12/05 12:26:56;;;;;;;40.90;27.20;;;1.30;99.90;;;;;;5064114;28;20053;-46
2023/12/05 12:29:23;;;;;;;31.45;21.92;;;1.50;99.90;;;;;;5067830;28;20398;-47
2023/12/05 12:31:50;;;;;;;37.40;26.83;;;1.30;99.90;;;;;;5064058;28;20041;-46
2023/12/05 12:34:26;;;;;;;35.28;24.35;;;1.30;99.90;;;;;;5066672;28;20300;-45
2023/12/05 12:36:53;;;;;;;38.30;27.10;;;1.20;99.90;;;;;;5066583;28;20075;-45
2023/12/05 12:39:19;;;;;;;36.13;26.23;;;1.30;99.90;;;;;;5067532;28;20041;-45